N514RS LJLJ-EDDB
Flight info
| Callsign | N514RS |
|---|---|
| Flight time | 1h 29m |
| Altitude | 34000 |
| Route | GIMIX DCT SIMBA DCT TIVDA/N0308F330 DCT ETVIS DCT GAVLI/N0306F340 T203 ATGUP ATGUP1R |
| Aircraft | STAR/L-SDFGRWY/S |
Departure
| Time | 2026-05-08 18:25 |
|---|---|
| Airport | Ljubljana Jože Pučnik Airport (LJLJ) |
Arrival
| Time | 2026-05-08 19:55 |
|---|---|
| Airport | Berlin Brandenburg Airport (EDDB) |
| Time | Latitude | Longitude | Altitude | Speed | Heading |
|---|---|---|---|---|---|
| 2026-05-08 18:11 | 46.22834 | 14.45715 | 1255 ft | 0 kts | 216° |
| 2026-05-08 18:21 | 46.22804 | 14.45659 | 1257 ft | 15 kts | 255° |
| 2026-05-08 18:21 | 46.22756 | 14.45570 | 1249 ft | 2 kts | 219° |
| 2026-05-08 18:22 | 46.22756 | 14.45470 | 1253 ft | 20 kts | 306° |
| 2026-05-08 18:22 | 46.22860 | 14.45265 | 1264 ft | 29 kts | 304° |
| 2026-05-08 18:22 | 46.22990 | 14.45010 | 1265 ft | 34 kts | 307° |
| 2026-05-08 18:22 | 46.23110 | 14.44779 | 1267 ft | 21 kts | 307° |
| 2026-05-08 18:23 | 46.23185 | 14.44632 | 1271 ft | 16 kts | 307° |
| 2026-05-08 18:23 | 46.23239 | 14.44518 | 1273 ft | 11 kts | 294° |
| 2026-05-08 18:23 | 46.23280 | 14.44440 | 1275 ft | 8 kts | 310° |
| 2026-05-08 18:23 | 46.23334 | 14.44341 | 1278 ft | 17 kts | 304° |
| 2026-05-08 18:24 | 46.23400 | 14.44184 | 1281 ft | 15 kts | 280° |
| 2026-05-08 18:24 | 46.23343 | 14.44078 | 1283 ft | 18 kts | 192° |
| 2026-05-08 18:24 | 46.23210 | 14.44136 | 1281 ft | 24 kts | 144° |
| 2026-05-08 18:24 | 46.23096 | 14.44346 | 1274 ft | 31 kts | 127° |
| 2026-05-08 18:25 | 46.22895 | 14.44738 | 1266 ft | 68 kts | 126° |
| 2026-05-08 18:25 | 46.22512 | 14.45490 | 1251 ft | 119 kts | 126° |
| 2026-05-08 18:25 | 46.21965 | 14.46543 | 1488 ft | 149 kts | 126° |
| 2026-05-08 18:25 | 46.21317 | 14.47795 | 1989 ft | 160 kts | 126° |
| 2026-05-08 18:26 | 46.20635 | 14.49101 | 2534 ft | 164 kts | 128° |
| 2026-05-08 18:26 | 46.19690 | 14.49916 | 3158 ft | 160 kts | 172° |
| 2026-05-08 18:26 | 46.18630 | 14.49491 | 3729 ft | 165 kts | 217° |
| 2026-05-08 18:26 | 46.18063 | 14.48055 | 4325 ft | 171 kts | 261° |
| 2026-05-08 18:27 | 46.18296 | 14.46382 | 4922 ft | 174 kts | 295° |
| 2026-05-08 18:27 | 46.18796 | 14.45493 | 5310 ft | 174 kts | 321° |
| 2026-05-08 18:27 | 46.20152 | 14.44178 | 6119 ft | 176 kts | 328° |
| 2026-05-08 18:27 | 46.21206 | 14.43273 | 6743 ft | 177 kts | 329° |
| 2026-05-08 18:28 | 46.22260 | 14.42398 | 7357 ft | 178 kts | 329° |
| 2026-05-08 18:28 | 46.23249 | 14.41328 | 7978 ft | 178 kts | 317° |
| 2026-05-08 18:28 | 46.24121 | 14.40058 | 8727 ft | 179 kts | 311° |
| 2026-05-08 18:28 | 46.24919 | 14.38671 | 9488 ft | 181 kts | 308° |
| 2026-05-08 18:29 | 46.25679 | 14.37217 | 10236 ft | 183 kts | 306° |
| 2026-05-08 18:29 | 46.26431 | 14.35724 | 10941 ft | 184 kts | 306° |
| 2026-05-08 18:29 | 46.27134 | 14.34169 | 11658 ft | 187 kts | 299° |
| 2026-05-08 18:29 | 46.27761 | 14.32515 | 12348 ft | 188 kts | 299° |
| 2026-05-08 18:30 | 46.28426 | 14.30872 | 13054 ft | 190 kts | 301° |
| 2026-05-08 18:30 | 46.29102 | 14.29252 | 13758 ft | 192 kts | 300° |
| 2026-05-08 18:30 | 46.29779 | 14.27572 | 14388 ft | 194 kts | 299° |
| 2026-05-08 18:30 | 46.30461 | 14.25869 | 15013 ft | 197 kts | 300° |
| 2026-05-08 18:31 | 46.31161 | 14.24152 | 15652 ft | 199 kts | 300° |
| 2026-05-08 18:31 | 46.31867 | 14.22411 | 16286 ft | 202 kts | 299° |
| 2026-05-08 18:31 | 46.32578 | 14.20648 | 16944 ft | 204 kts | 299° |
| 2026-05-08 18:31 | 46.33298 | 14.18863 | 17595 ft | 207 kts | 299° |
| 2026-05-08 18:32 | 46.34028 | 14.17059 | 18252 ft | 209 kts | 299° |
| 2026-05-08 18:32 | 46.34755 | 14.15261 | 18841 ft | 210 kts | 298° |
| 2026-05-08 18:32 | 46.35491 | 14.13435 | 19436 ft | 211 kts | 298° |
| 2026-05-08 18:32 | 46.36232 | 14.11593 | 20018 ft | 213 kts | 297° |
| 2026-05-08 18:33 | 46.36980 | 14.09734 | 20600 ft | 215 kts | 297° |
| 2026-05-08 18:33 | 46.37735 | 14.07860 | 21181 ft | 216 kts | 297° |
| 2026-05-08 18:33 | 46.38496 | 14.05966 | 21756 ft | 219 kts | 296° |
| 2026-05-08 18:33 | 46.39262 | 14.04057 | 22326 ft | 221 kts | 296° |
| 2026-05-08 18:34 | 46.40038 | 14.02126 | 22900 ft | 223 kts | 295° |
| 2026-05-08 18:34 | 46.40820 | 14.00176 | 23458 ft | 225 kts | 295° |
| 2026-05-08 18:34 | 46.41609 | 13.98202 | 23939 ft | 227 kts | 295° |
| 2026-05-08 18:34 | 46.42397 | 13.96246 | 24371 ft | 228 kts | 295° |
| 2026-05-08 18:35 | 46.43192 | 13.94260 | 24823 ft | 228 kts | 294° |
| 2026-05-08 18:35 | 46.43986 | 13.92262 | 25250 ft | 229 kts | 295° |
| 2026-05-08 18:35 | 46.44793 | 13.90258 | 25658 ft | 230 kts | 294° |
| 2026-05-08 18:35 | 46.45598 | 13.88244 | 26079 ft | 231 kts | 294° |
| 2026-05-08 18:36 | 46.46404 | 13.86217 | 26457 ft | 233 kts | 294° |
| 2026-05-08 18:36 | 46.47216 | 13.84182 | 26826 ft | 234 kts | 294° |
| 2026-05-08 18:36 | 46.48037 | 13.82134 | 27238 ft | 234 kts | 294° |
| 2026-05-08 18:36 | 46.48844 | 13.80090 | 27616 ft | 235 kts | 294° |
| 2026-05-08 18:37 | 46.49652 | 13.78060 | 28012 ft | 236 kts | 295° |
| 2026-05-08 18:37 | 46.50481 | 13.75996 | 28398 ft | 237 kts | 294° |
| 2026-05-08 18:37 | 46.51303 | 13.73914 | 28725 ft | 238 kts | 294° |
| 2026-05-08 18:37 | 46.52221 | 13.71896 | 29081 ft | 246 kts | 308° |
| 2026-05-08 18:38 | 46.53719 | 13.70588 | 29356 ft | 261 kts | 336° |
| 2026-05-08 18:38 | 46.55489 | 13.69914 | 29665 ft | 265 kts | 341° |
| 2026-05-08 18:38 | 46.57308 | 13.69364 | 29975 ft | 268 kts | 343° |
| 2026-05-08 18:38 | 46.59114 | 13.68757 | 30252 ft | 266 kts | 337° |
| 2026-05-08 18:39 | 46.60890 | 13.67973 | 30478 ft | 268 kts | 338° |
| 2026-05-08 18:39 | 46.62682 | 13.67296 | 30681 ft | 270 kts | 339° |
| 2026-05-08 18:39 | 46.64497 | 13.66580 | 30899 ft | 271 kts | 338° |
| 2026-05-08 18:39 | 46.66315 | 13.65837 | 31111 ft | 272 kts | 338° |
| 2026-05-08 18:40 | 46.68147 | 13.65124 | 31306 ft | 274 kts | 339° |
| 2026-05-08 18:40 | 46.69986 | 13.64390 | 31448 ft | 274 kts | 338° |
| 2026-05-08 18:40 | 46.71831 | 13.63648 | 31636 ft | 276 kts | 338° |
| 2026-05-08 18:40 | 46.73687 | 13.62916 | 31827 ft | 277 kts | 338° |
| 2026-05-08 18:41 | 46.75548 | 13.62171 | 32023 ft | 278 kts | 338° |
| 2026-05-08 18:41 | 46.77413 | 13.61425 | 32188 ft | 278 kts | 338° |
| 2026-05-08 18:41 | 46.79261 | 13.60687 | 32352 ft | 280 kts | 338° |
| 2026-05-08 18:41 | 46.81144 | 13.59935 | 32528 ft | 281 kts | 338° |
| 2026-05-08 18:42 | 46.83034 | 13.59178 | 32702 ft | 282 kts | 338° |
| 2026-05-08 18:42 | 46.84931 | 13.58419 | 32851 ft | 283 kts | 337° |
| 2026-05-08 18:42 | 46.86837 | 13.57652 | 32975 ft | 284 kts | 338° |
| 2026-05-08 18:42 | 46.88740 | 13.56891 | 33096 ft | 283 kts | 338° |
| 2026-05-08 18:43 | 46.90643 | 13.56134 | 33205 ft | 284 kts | 338° |
| 2026-05-08 18:43 | 46.92552 | 13.55361 | 33341 ft | 285 kts | 338° |
| 2026-05-08 18:43 | 46.94465 | 13.54592 | 33455 ft | 286 kts | 338° |
| 2026-05-08 18:43 | 46.96388 | 13.53823 | 33604 ft | 287 kts | 338° |
| 2026-05-08 18:44 | 46.98289 | 13.53052 | 33752 ft | 288 kts | 338° |
| 2026-05-08 18:44 | 47.00232 | 13.52273 | 33934 ft | 288 kts | 338° |
| 2026-05-08 18:44 | 47.02160 | 13.51497 | 34013 ft | 290 kts | 337° |
| 2026-05-08 18:44 | 47.04112 | 13.50707 | 34043 ft | 292 kts | 338° |
| 2026-05-08 18:45 | 47.06073 | 13.49913 | 34064 ft | 294 kts | 338° |
| 2026-05-08 18:45 | 47.08058 | 13.49115 | 34068 ft | 298 kts | 338° |
| 2026-05-08 18:45 | 47.10058 | 13.48306 | 34076 ft | 299 kts | 338° |
| 2026-05-08 18:45 | 47.12074 | 13.47488 | 34081 ft | 302 kts | 338° |
| 2026-05-08 18:46 | 47.16125 | 13.45849 | 34079 ft | 305 kts | 338° |
| 2026-05-08 18:46 | 47.20235 | 13.44180 | 34081 ft | 309 kts | 338° |
| 2026-05-08 18:47 | 47.24396 | 13.42490 | 34089 ft | 311 kts | 338° |
| 2026-05-08 18:47 | 47.28585 | 13.40786 | 34082 ft | 313 kts | 338° |
| 2026-05-08 18:48 | 47.32790 | 13.39070 | 34080 ft | 314 kts | 338° |
| 2026-05-08 18:48 | 47.36975 | 13.37357 | 34080 ft | 314 kts | 338° |
| 2026-05-08 18:49 | 47.41195 | 13.35636 | 34074 ft | 315 kts | 338° |
| 2026-05-08 18:49 | 47.45412 | 13.33908 | 34079 ft | 314 kts | 338° |
| 2026-05-08 18:50 | 47.49623 | 13.32175 | 34071 ft | 314 kts | 338° |
| 2026-05-08 18:50 | 47.53810 | 13.30457 | 34066 ft | 314 kts | 338° |
| 2026-05-08 18:51 | 47.57991 | 13.28734 | 34061 ft | 311 kts | 338° |
| 2026-05-08 18:51 | 47.62141 | 13.27016 | 34068 ft | 311 kts | 337° |
| 2026-05-08 18:52 | 47.66324 | 13.25295 | 34062 ft | 311 kts | 337° |
| 2026-05-08 18:52 | 47.70488 | 13.23575 | 34069 ft | 314 kts | 336° |
| 2026-05-08 18:53 | 47.74711 | 13.21823 | 34063 ft | 315 kts | 336° |
| 2026-05-08 18:53 | 47.78946 | 13.20058 | 34061 ft | 317 kts | 337° |
| 2026-05-08 18:54 | 47.83200 | 13.18291 | 34073 ft | 317 kts | 336° |
| 2026-05-08 18:54 | 47.87420 | 13.16532 | 34060 ft | 316 kts | 336° |
| 2026-05-08 18:55 | 47.93763 | 13.13883 | 34061 ft | 315 kts | 336° |
| 2026-05-08 18:56 | 47.97981 | 13.12120 | 34060 ft | 314 kts | 336° |
| 2026-05-08 18:56 | 48.02191 | 13.10355 | 34055 ft | 314 kts | 336° |
| 2026-05-08 18:57 | 48.06367 | 13.08601 | 34056 ft | 314 kts | 336° |
| 2026-05-08 18:57 | 48.10563 | 13.06837 | 34060 ft | 313 kts | 336° |
| 2026-05-08 18:58 | 48.14751 | 13.05073 | 34061 ft | 312 kts | 336° |
| 2026-05-08 18:58 | 48.18934 | 13.03307 | 34068 ft | 312 kts | 336° |
| 2026-05-08 18:59 | 48.23111 | 13.01544 | 34064 ft | 312 kts | 336° |
| 2026-05-08 18:59 | 48.27402 | 13.00342 | 34067 ft | 315 kts | 340° |
| 2026-05-08 19:00 | 48.31707 | 12.99067 | 34067 ft | 316 kts | 341° |
| 2026-05-08 19:00 | 48.36016 | 12.97789 | 34081 ft | 316 kts | 341° |
| 2026-05-08 19:01 | 48.40319 | 12.96533 | 34071 ft | 314 kts | 341° |
| 2026-05-08 19:01 | 48.44610 | 12.95282 | 34068 ft | 314 kts | 341° |
| 2026-05-08 19:02 | 48.48877 | 12.94028 | 34067 ft | 315 kts | 341° |
| 2026-05-08 19:02 | 48.53190 | 12.92759 | 34070 ft | 316 kts | 341° |
| 2026-05-08 19:03 | 48.57512 | 12.91487 | 34070 ft | 317 kts | 341° |
| 2026-05-08 19:03 | 48.61847 | 12.90211 | 34071 ft | 317 kts | 341° |
| 2026-05-08 19:04 | 48.66175 | 12.88929 | 34076 ft | 317 kts | 341° |
| 2026-05-08 19:04 | 48.70474 | 12.87658 | 34076 ft | 317 kts | 341° |
| 2026-05-08 19:05 | 48.74796 | 12.86377 | 34080 ft | 316 kts | 341° |
| 2026-05-08 19:05 | 48.79114 | 12.85094 | 34081 ft | 316 kts | 341° |
| 2026-05-08 19:06 | 48.83409 | 12.83815 | 34088 ft | 313 kts | 342° |
| 2026-05-08 19:06 | 48.87690 | 12.82540 | 34084 ft | 315 kts | 342° |
| 2026-05-08 19:07 | 48.91966 | 12.81264 | 34086 ft | 316 kts | 342° |
| 2026-05-08 19:07 | 48.96288 | 12.79971 | 34086 ft | 317 kts | 342° |
| 2026-05-08 19:08 | 49.00619 | 12.78673 | 34085 ft | 317 kts | 342° |
| 2026-05-08 19:08 | 49.04944 | 12.77374 | 34098 ft | 316 kts | 342° |
| 2026-05-08 19:09 | 49.09266 | 12.76076 | 34091 ft | 316 kts | 342° |
| 2026-05-08 19:09 | 49.13556 | 12.74784 | 34091 ft | 316 kts | 342° |
| 2026-05-08 19:10 | 49.17865 | 12.73483 | 34096 ft | 316 kts | 342° |
| 2026-05-08 19:10 | 49.22170 | 12.72182 | 34095 ft | 315 kts | 342° |
| 2026-05-08 19:11 | 49.26470 | 12.70881 | 34093 ft | 315 kts | 342° |
| 2026-05-08 19:11 | 49.30761 | 12.69581 | 34100 ft | 314 kts | 343° |
| 2026-05-08 19:12 | 49.35052 | 12.68273 | 34102 ft | 314 kts | 343° |
| 2026-05-08 19:12 | 49.39310 | 12.66978 | 34103 ft | 314 kts | 343° |
| 2026-05-08 19:13 | 49.43634 | 12.65997 | 34103 ft | 322 kts | 360° |
| 2026-05-08 19:13 | 49.45807 | 12.66920 | 34108 ft | 330 kts | 20° |
| 2026-05-08 19:13 | 49.47865 | 12.68525 | 34108 ft | 332 kts | 25° |
| 2026-05-08 19:14 | 49.51949 | 12.71832 | 34109 ft | 330 kts | 20° |
| 2026-05-08 19:14 | 49.56078 | 12.74875 | 34114 ft | 329 kts | 22° |
| 2026-05-08 19:15 | 49.60202 | 12.77908 | 34116 ft | 328 kts | 22° |
| 2026-05-08 19:15 | 49.64295 | 12.80913 | 34118 ft | 327 kts | 20° |
| 2026-05-08 19:16 | 49.68581 | 12.82975 | 34119 ft | 321 kts | 6° |
| 2026-05-08 19:16 | 49.72937 | 12.84566 | 34125 ft | 321 kts | 9° |
| 2026-05-08 19:17 | 49.77283 | 12.86157 | 34127 ft | 321 kts | 10° |
| 2026-05-08 19:17 | 49.81622 | 12.87761 | 34127 ft | 320 kts | 10° |
| 2026-05-08 19:18 | 49.85927 | 12.89370 | 34130 ft | 320 kts | 9° |
| 2026-05-08 19:18 | 49.90257 | 12.90988 | 34133 ft | 320 kts | 9° |
| 2026-05-08 19:19 | 49.94585 | 12.92599 | 34136 ft | 320 kts | 11° |
| 2026-05-08 19:19 | 49.98900 | 12.94220 | 34134 ft | 318 kts | 11° |
| 2026-05-08 19:20 | 50.03204 | 12.95837 | 34130 ft | 318 kts | 11° |
| 2026-05-08 19:20 | 50.07499 | 12.97449 | 34130 ft | 317 kts | 11° |
| 2026-05-08 19:21 | 50.11757 | 12.99053 | 34130 ft | 317 kts | 11° |
| 2026-05-08 19:21 | 50.16046 | 13.00669 | 34133 ft | 317 kts | 11° |
| 2026-05-08 19:22 | 50.20329 | 13.02291 | 34131 ft | 317 kts | 11° |
| 2026-05-08 19:22 | 50.24604 | 13.03909 | 34130 ft | 316 kts | 11° |
| 2026-05-08 19:23 | 50.28880 | 13.05532 | 34130 ft | 316 kts | 11° |
| 2026-05-08 19:23 | 50.33124 | 13.07143 | 34135 ft | 316 kts | 11° |
| 2026-05-08 19:24 | 50.37394 | 13.08770 | 34137 ft | 316 kts | 11° |
| 2026-05-08 19:24 | 50.41610 | 13.10722 | 34143 ft | 317 kts | 18° |
| 2026-05-08 19:25 | 50.45813 | 13.12753 | 34151 ft | 316 kts | 15° |
| 2026-05-08 19:25 | 50.50009 | 13.14810 | 34151 ft | 316 kts | 14° |
| 2026-05-08 19:26 | 50.54203 | 13.16873 | 34150 ft | 316 kts | 15° |
| 2026-05-08 19:26 | 50.58375 | 13.18915 | 34154 ft | 316 kts | 15° |
| 2026-05-08 19:27 | 50.62578 | 13.20973 | 34154 ft | 316 kts | 15° |
| 2026-05-08 19:27 | 50.66762 | 13.23033 | 34135 ft | 311 kts | 14° |
| 2026-05-08 19:27 | 50.68863 | 13.24063 | 33628 ft | 322 kts | 15° |
| 2026-05-08 19:28 | 50.71035 | 13.25136 | 33084 ft | 332 kts | 15° |
| 2026-05-08 19:28 | 50.73264 | 13.26237 | 32547 ft | 338 kts | 14° |
| 2026-05-08 19:28 | 50.75509 | 13.27345 | 32016 ft | 339 kts | 14° |
| 2026-05-08 19:28 | 50.77760 | 13.28457 | 31511 ft | 339 kts | 14° |
| 2026-05-08 19:29 | 50.80011 | 13.29570 | 31007 ft | 340 kts | 14° |
| 2026-05-08 19:29 | 50.82278 | 13.30693 | 30522 ft | 343 kts | 14° |
| 2026-05-08 19:29 | 50.84533 | 13.31809 | 30007 ft | 347 kts | 14° |
| 2026-05-08 19:29 | 50.86847 | 13.32959 | 29435 ft | 350 kts | 14° |
| 2026-05-08 19:30 | 50.89175 | 13.34115 | 28871 ft | 351 kts | 14° |
| 2026-05-08 19:30 | 50.91508 | 13.35275 | 28321 ft | 352 kts | 14° |
| 2026-05-08 19:30 | 50.93844 | 13.36438 | 27781 ft | 352 kts | 14° |
| 2026-05-08 19:30 | 50.96177 | 13.37601 | 27255 ft | 351 kts | 14° |
| 2026-05-08 19:31 | 50.98506 | 13.38762 | 26737 ft | 350 kts | 14° |
| 2026-05-08 19:31 | 51.00829 | 13.39923 | 26232 ft | 349 kts | 14° |
| 2026-05-08 19:31 | 51.03145 | 13.41080 | 25727 ft | 348 kts | 14° |
| 2026-05-08 19:31 | 51.05423 | 13.42219 | 25251 ft | 347 kts | 14° |
| 2026-05-08 19:32 | 51.07719 | 13.43370 | 24768 ft | 346 kts | 14° |
| 2026-05-08 19:32 | 51.10010 | 13.44518 | 24287 ft | 345 kts | 14° |
| 2026-05-08 19:32 | 51.12298 | 13.45666 | 23824 ft | 345 kts | 14° |
| 2026-05-08 19:32 | 51.14585 | 13.46817 | 23279 ft | 345 kts | 14° |
| 2026-05-08 19:33 | 51.16873 | 13.47967 | 22731 ft | 345 kts | 14° |
| 2026-05-08 19:33 | 51.19157 | 13.49117 | 22192 ft | 344 kts | 14° |
| 2026-05-08 19:33 | 51.21431 | 13.50263 | 21664 ft | 343 kts | 14° |
| 2026-05-08 19:33 | 51.23709 | 13.51413 | 21143 ft | 342 kts | 14° |
| 2026-05-08 19:34 | 51.25970 | 13.52555 | 20662 ft | 341 kts | 14° |
| 2026-05-08 19:34 | 51.28208 | 13.53687 | 20408 ft | 334 kts | 14° |
| 2026-05-08 19:34 | 51.30391 | 13.54792 | 20285 ft | 325 kts | 14° |
| 2026-05-08 19:34 | 51.32499 | 13.55858 | 20227 ft | 322 kts | 14° |
| 2026-05-08 19:35 | 51.34639 | 13.56943 | 20190 ft | 322 kts | 14° |
| 2026-05-08 19:35 | 51.36775 | 13.58029 | 20179 ft | 322 kts | 14° |
| 2026-05-08 19:35 | 51.38909 | 13.59112 | 20173 ft | 321 kts | 14° |
| 2026-05-08 19:35 | 51.41033 | 13.60193 | 20173 ft | 321 kts | 14° |
| 2026-05-08 19:36 | 51.43159 | 13.61276 | 20171 ft | 321 kts | 14° |
| 2026-05-08 19:36 | 51.45289 | 13.62345 | 20171 ft | 321 kts | 13° |
| 2026-05-08 19:36 | 51.47444 | 13.63226 | 20170 ft | 318 kts | 6° |
| 2026-05-08 19:36 | 51.48894 | 13.63564 | 20183 ft | 317 kts | 4° |
| 2026-05-08 19:37 | 51.51080 | 13.64106 | 20177 ft | 319 kts | 7° |
| 2026-05-08 19:37 | 51.53261 | 13.64759 | 20173 ft | 318 kts | 6° |
| 2026-05-08 19:37 | 51.56159 | 13.65398 | 20171 ft | 315 kts | 357° |
| 2026-05-08 19:37 | 51.58265 | 13.64733 | 20171 ft | 305 kts | 334° |
| 2026-05-08 19:38 | 51.60154 | 13.63215 | 19878 ft | 306 kts | 328° |
| 2026-05-08 19:38 | 51.61418 | 13.62080 | 19539 ft | 311 kts | 328° |
| 2026-05-08 19:38 | 51.63321 | 13.60354 | 19056 ft | 316 kts | 328° |
| 2026-05-08 19:38 | 51.65231 | 13.58646 | 18586 ft | 320 kts | 328° |
| 2026-05-08 19:39 | 51.67182 | 13.56911 | 18059 ft | 321 kts | 328° |
| 2026-05-08 19:39 | 51.69139 | 13.55173 | 17522 ft | 321 kts | 328° |
| 2026-05-08 19:39 | 51.71114 | 13.53485 | 16995 ft | 322 kts | 333° |
| 2026-05-08 19:39 | 51.73158 | 13.52146 | 16472 ft | 307 kts | 336° |
| 2026-05-08 19:40 | 51.75040 | 13.50813 | 16039 ft | 284 kts | 332° |
| 2026-05-08 19:40 | 51.76794 | 13.49548 | 15576 ft | 270 kts | 334° |
| 2026-05-08 19:40 | 51.78498 | 13.48377 | 15084 ft | 265 kts | 334° |
| 2026-05-08 19:40 | 51.80180 | 13.47168 | 14592 ft | 264 kts | 333° |
| 2026-05-08 19:41 | 51.81857 | 13.45983 | 14108 ft | 262 kts | 334° |
| 2026-05-08 19:41 | 51.83526 | 13.44820 | 13589 ft | 261 kts | 334° |
| 2026-05-08 19:41 | 51.85176 | 13.43629 | 13044 ft | 258 kts | 334° |
| 2026-05-08 19:41 | 51.86818 | 13.42472 | 12536 ft | 256 kts | 335° |
| 2026-05-08 19:42 | 51.88444 | 13.41325 | 12017 ft | 254 kts | 334° |
| 2026-05-08 19:42 | 51.90032 | 13.40193 | 11519 ft | 252 kts | 335° |
| 2026-05-08 19:42 | 51.91632 | 13.39056 | 11021 ft | 251 kts | 335° |
| 2026-05-08 19:42 | 51.93224 | 13.37927 | 10535 ft | 249 kts | 335° |
| 2026-05-08 19:43 | 51.94808 | 13.36799 | 10048 ft | 248 kts | 335° |
| 2026-05-08 19:43 | 51.96380 | 13.35680 | 9513 ft | 246 kts | 335° |
| 2026-05-08 19:43 | 51.97940 | 13.34570 | 8984 ft | 244 kts | 336° |
| 2026-05-08 19:43 | 51.99485 | 13.33468 | 8464 ft | 241 kts | 336° |
| 2026-05-08 19:44 | 52.01012 | 13.32378 | 7950 ft | 239 kts | 336° |
| 2026-05-08 19:44 | 52.02538 | 13.31288 | 7547 ft | 241 kts | 336° |
| 2026-05-08 19:44 | 52.04090 | 13.30182 | 7358 ft | 245 kts | 336° |
| 2026-05-08 19:44 | 52.05646 | 13.29069 | 7269 ft | 244 kts | 336° |
| 2026-05-08 19:45 | 52.07145 | 13.27898 | 7224 ft | 241 kts | 330° |
| 2026-05-08 19:45 | 52.08550 | 13.26432 | 7209 ft | 240 kts | 326° |
| 2026-05-08 19:45 | 52.09920 | 13.24886 | 7202 ft | 239 kts | 325° |
| 2026-05-08 19:45 | 52.11275 | 13.23313 | 7198 ft | 239 kts | 324° |
| 2026-05-08 19:46 | 52.12623 | 13.21731 | 7194 ft | 239 kts | 324° |
| 2026-05-08 19:46 | 52.13980 | 13.20129 | 6949 ft | 242 kts | 324° |
| 2026-05-08 19:46 | 52.16610 | 13.17008 | 6227 ft | 232 kts | 324° |
| 2026-05-08 19:47 | 52.17923 | 13.15436 | 5839 ft | 236 kts | 324° |
| 2026-05-08 19:47 | 52.19248 | 13.13837 | 5500 ft | 237 kts | 324° |
| 2026-05-08 19:47 | 52.20540 | 13.12267 | 5329 ft | 226 kts | 324° |
| 2026-05-08 19:47 | 52.21800 | 13.10877 | 5252 ft | 211 kts | 338° |
| 2026-05-08 19:48 | 52.23176 | 13.10489 | 5086 ft | 203 kts | 359° |
| 2026-05-08 19:48 | 52.24641 | 13.10473 | 4820 ft | 218 kts | 2° |
| 2026-05-08 19:48 | 52.26196 | 13.10545 | 4564 ft | 227 kts | 4° |
| 2026-05-08 19:48 | 52.27749 | 13.10648 | 4359 ft | 219 kts | 4° |
| 2026-05-08 19:49 | 52.29238 | 13.10810 | 4266 ft | 209 kts | 12° |
| 2026-05-08 19:49 | 52.30456 | 13.11910 | 4223 ft | 200 kts | 48° |
| 2026-05-08 19:49 | 52.31044 | 13.13915 | 4216 ft | 196 kts | 75° |
| 2026-05-08 19:49 | 52.31332 | 13.16080 | 4208 ft | 194 kts | 79° |
| 2026-05-08 19:50 | 52.31515 | 13.18291 | 3979 ft | 202 kts | 85° |
| 2026-05-08 19:50 | 52.31607 | 13.20536 | 3706 ft | 191 kts | 85° |
| 2026-05-08 19:50 | 52.31709 | 13.22576 | 3468 ft | 170 kts | 84° |
| 2026-05-08 19:50 | 52.31841 | 13.24467 | 3254 ft | 166 kts | 82° |
| 2026-05-08 19:51 | 52.32030 | 13.26332 | 3039 ft | 167 kts | 79° |
| 2026-05-08 19:51 | 52.32278 | 13.28187 | 2817 ft | 168 kts | 77° |
| 2026-05-08 19:51 | 52.32555 | 13.30014 | 2589 ft | 168 kts | 76° |
| 2026-05-08 19:51 | 52.32853 | 13.31862 | 2353 ft | 168 kts | 75° |
| 2026-05-08 19:52 | 52.33209 | 13.33670 | 2125 ft | 167 kts | 69° |
| 2026-05-08 19:52 | 52.33654 | 13.35416 | 1901 ft | 166 kts | 67° |
| 2026-05-08 19:52 | 52.34094 | 13.37159 | 1673 ft | 166 kts | 69° |
| 2026-05-08 19:52 | 52.34504 | 13.38925 | 1444 ft | 166 kts | 70° |
| 2026-05-08 19:53 | 52.34907 | 13.40682 | 1204 ft | 158 kts | 69° |
| 2026-05-08 19:53 | 52.35276 | 13.42242 | 997 ft | 138 kts | 68° |
| 2026-05-08 19:53 | 52.35611 | 13.43635 | 821 ft | 127 kts | 68° |
| 2026-05-08 19:53 | 52.35930 | 13.44953 | 653 ft | 122 kts | 68° |
| 2026-05-08 19:54 | 52.36243 | 13.46261 | 482 ft | 126 kts | 69° |
| 2026-05-08 19:54 | 52.36567 | 13.47625 | 312 ft | 130 kts | 69° |
| 2026-05-08 19:54 | 52.36881 | 13.48975 | 159 ft | 117 kts | 69° |
| 2026-05-08 19:54 | 52.37138 | 13.50058 | 152 ft | 85 kts | 69° |
| 2026-05-08 19:55 | 52.37302 | 13.50826 | 151 ft | 60 kts | 82° |
| 2026-05-08 19:55 | 52.37280 | 13.51272 | 154 ft | 14 kts | 97° |
| 2026-05-08 19:55 | 52.37279 | 13.51289 | 154 ft | 0 kts | 97° |
| 2026-05-08 19:55 | 52.37278 | 13.51295 | 154 ft | 3 kts | 98° |
| 2026-05-08 19:56 | 52.37253 | 13.51383 | 154 ft | 13 kts | 156° |
| 2026-05-08 19:56 | 52.37153 | 13.51485 | 154 ft | 20 kts | 101° |
| 2026-05-08 19:56 | 52.37202 | 13.51731 | 154 ft | 26 kts | 68° |
| 2026-05-08 19:56 | 52.37270 | 13.52025 | 154 ft | 24 kts | 87° |
| 2026-05-08 19:57 | 52.37184 | 13.52152 | 154 ft | 15 kts | 152° |
| 2026-05-08 19:57 | 52.37101 | 13.52205 | 154 ft | 7 kts | 159° |
| 2026-05-08 19:57 | 52.37093 | 13.52210 | 154 ft | 0 kts | 158° |